Costar Group Inc (CSGP) Latest Bloomsberg Price


Mffais Ranking #2475 Overall / #7 Industry
Industry: Information Services

Number of Companies: 181 (Ranking #926 Overall/#11 Industry)
Inflow: $ 107,097 (K) (Ranking #925 Overall/#9 Industry)
Outflow: $ -200,537 (K)
Mffais Flow: $ -93,440 (K) (Ranking #2475 Overall/#7 Industry)


Owner CPOR Shares Action Qty Chg Invested (K) Total Current Value (K)
Chartwell Investment Partners Llc 2016-09-30 81,375 New Holding 81,375 $ 17,989 $ 17,989
Mitsubishi Ufj Trust Banking Corp 2016-09-30 76,260 New Holding 76,260 $ 16,858 $ 16,858
Bares Capital Management Inc 2016-09-30 312,770 Added More 45,158 $ 9,983 $ 69,144
Scge Management L P 2016-09-30 90,480 Added More 40,380 $ 8,926 $ 20,002
Strs Ohio 2016-09-30 47,500 Added More 30,000 $ 6,632 $ 10,500
Redwood Investments Llc 2016-09-30 28,935 New Holding 28,935 $ 6,396 $ 6,396
Kayne Anderson Rudnick Investment Management Llc 2016-09-30 107,322 Added More 27,018 $ 5,972 $ 23,725
Blair William Co Il 2016-09-30 352,160 Added More 23,063 $ 5,098 $ 77,852
Ibis Capital Partners Llp 2016-09-30 77,652 Added More 22,743 $ 5,027 $ 17,166
Mackenzie Financial Corp 2016-09-30 75,348 Added More 22,300 $ 4,929 $ 16,657
Spot Trading L L C 2016-09-30 16,000 New Holding 16,000 $ 3,537 $ 3,537
Icon Advisers Inc Co 2016-09-30 10,080 New Holding 10,080 $ 2,228 $ 2,228
Cubist Systematic Strategies Llc 2016-09-30 9,532 Added More 8,132 $ 1,797 $ 2,107
Quantitative Investment Management Llc 2016-09-30 7,900 New Holding 7,900 $ 1,746 $ 1,746
Arrowpoint Asset Management Llc 2016-09-30 144,984 Added More 7,189 $ 1,589 $ 32,051
Stevens Capital Management Lp 2016-09-30 5,504 New Holding 5,504 $ 1,216 $ 1,216
Marshall Wace Llp 2016-09-30 4,680 New Holding 4,680 $ 1,034 $ 1,034
Her Majesty The Queen In Right Of The Province Of Alberta As 2016-09-30 25,252 Added More 4,375 $ 967 $ 5,582
Dimensional Fund Advisors Lp 2016-09-30 68,186 Added More 3,004 $ 664 $ 15,073
Parametric Portfolio Associates Llc 2016-09-30 25,407 Added More 2,020 $ 446 $ 5,616
Two Sigma Securities Llc 2016-09-30 1,994 New Holding 1,994 $ 440 $ 440
Guggenheim Capital Llc 2016-09-30 1,787 New Holding 1,787 $ 395 $ 395
Gsa Capital Partners Llp 2016-09-30 1,490 New Holding 1,490 $ 329 $ 329
World Asset Management Inc 2016-09-30 1,291 New Holding 1,291 $ 285 $ 285
Rhumbline Advisers 2016-09-30 33,465 Added More 1,253 $ 277 $ 7,398
Twin Tree Management Lp 2016-09-30 1,200 New Holding 1,200 $ 265 $ 265
Henderson Group Plc 2016-09-30 151,819 Added More 933 $ 206 $ 33,562
Teachers Advisors Inc 2016-09-30 27,219 Added More 817 $ 180 $ 6,017
Blackrock Inc 2016-09-30 4,983 Added More 777 $ 171 $ 1,101
Quantbot Technologies Lp 2016-09-30 725 New Holding 725 $ 160 $ 160
Cutler Group Lp 2016-09-30 900 Added More 700 $ 154 $ 198
Northern Trust Corp 2016-09-30 336,894 Added More 636 $ 140 $ 74,477
California State Teachers Retirement System 2016-09-30 68,183 Added More 600 $ 132 $ 15,073
Capital Management Associates Ny 2016-09-30 2,100 Added More 600 $ 132 $ 464
Legal General Group Plc 2016-09-30 3,028 Added More 450 $ 99 $ 669
Fifth Third Bancorp 2016-09-30 895 Added More 441 $ 97 $ 197
Pacer Advisors Inc 2016-09-30 4,006 Added More 346 $ 76 $ 885
Mitsubishi Ufj Kokusai Asset Management Co Ltd 2016-09-30 315 New Holding 315 $ 69 $ 69
1st Global Advisors Inc 2016-09-30 1,962 Added More 291 $ 64 $ 433
Penserra Capital Management Llc 2016-09-30 576 Added More 288 $ 63 $ 127
Segall Bryant Hamill Llc 2016-09-30 2,127 Added More 282 $ 62 $ 470
Acrospire Investment Management Llc 2016-09-30 300 Added More 200 $ 44 $ 66
Aperio Group Llc 2016-09-30 8,583 Added More 169 $ 37 $ 1,897
Blackrock Investment Management Llc 2016-09-30 12,567 Added More 144 $ 31 $ 2,778
Zurcher Kantonalbank Zurich Cantonalbank 2016-09-30 988 Added More 128 $ 28 $ 218
Ladenburg Thalmann Financial Services Inc 2016-09-30 202 Added More 124 $ 27 $ 44
M T Bank Corp 2016-09-30 2,929 Added More 114 $ 25 $ 647
First Personal Financial Services 2016-09-30 92 New Holding 92 $ 20 $ 20
Bell State Bank Trust 2016-09-30 1,768 Added More 55 $ 12 $ 390
Lebenthal Asset Management Llc 2016-09-30 9,029 Added More 49 $ 10 $ 1,996
Ftb Advisors Inc 2016-09-30 56 Added More 10 $ 2 $ 12
Proficio Capital Partners Llc 2016-09-30 20 Added More 9 $ 1 $ 4
Northwestern Mutual Wealth Management Co 2016-09-30 219 Added More 8 $ 1 $ 48
Creative Planning 2016-09-30 14 Added More 7 $ 1 $ 3
Msi Financial Services Inc 2016-09-30 52 Added More 5 $ 1 $ 11
Cambridge Investment Research Advisors Inc 2016-09-30 13,187 Added More 2 $ 0 $ 2,915
Assetmark Inc 2016-09-30 29 Added More 2 $ 0 $ 6
Formula Growth Ltd 2016-09-30 7,500 No Change 0 $ 0 $ 1,658
Papp L Roy Associates 2016-09-30 4,804 No Change 0 $ 0 $ 1,062
Wall Street Associates 2016-09-30 2,045 No Change 0 $ 0 $ 452
Delta Asset Management Llc Tn 2016-09-30 176 No Change 0 $ 0 $ 38
Rockefeller Financial Services Inc 2016-09-30 63 No Change 0 $ 0 $ 13
Panagora Asset Management Inc 2016-09-30 25 No Change 0 $ 0 $ 5
Connable Office Inc 2016-09-30 3,000 No Change 0 $ 0 $ 663
Tompkins Financial Corp 2016-09-30 171 No Change 0 $ 0 $ 37
First Quadrant L P Ca 2016-09-30 300 No Change 0 $ 0 $ 66
Arcadia Investment Management Corp Mi 2016-09-30 172 No Change 0 $ 0 $ 38
Quadrant Capital Group Llc 2016-09-30 87 No Change 0 $ 0 $ 19
Cibc Asset Management Inc 2016-09-30 1,040 No Change 0 $ 0 $ 229
Par Capital Management Inc 2016-09-30 85,000 No Change 0 $ 0 $ 18,790
Bessemer Group Inc 2016-09-30 63 No Change 0 $ 0 $ 13
Marsico Capital Management Llc 2016-09-30 35,500 No Change 0 $ 0 $ 7,847
Taylor Wealth Management Partners 2016-09-30 240 No Change 0 $ 0 $ 53
Kanaly Trust Co 2016-09-30 7 No Change 0 $ 0 $ 1
Lenox Wealth Management Inc 2016-09-30 300 No Change 0 $ 0 $ 66
Barbara Oil Co 2016-09-30 3,200 No Change 0 $ 0 $ 707
Vantage Investment Advisors Llc 2016-09-30 200 No Change 0 $ 0 $ 44
Advisory Services Network Llc 2016-09-30 17 No Change 0 $ 0 $ 3
Alexandria Capital Llc 2016-09-30 2,834 No Change 0 $ 0 $ 626
Winfield Associates Inc 2016-09-30 10 No Change 0 $ 0 $ 2
Regions Financial Corp 2016-09-30 2,087 No Change 0 $ 0 $ 461
Mirae Asset Global Investments Co Ltd 2016-09-30 4,267 No Change 0 $ 0 $ 943
Redmond Asset Management Llc 2016-09-30 4,662 No Change 0 $ 0 $ 1,030
Carroll Financial Associates Inc 2016-09-30 77 No Change 0 $ 0 $ 17
Utah Retirement Systems 2016-09-30 5,900 No Change 0 $ 0 $ 1,304
Horizon Kinetics Llc 2016-09-30 2,000 No Change 0 $ 0 $ 442
Qs Investors Llc 2016-09-30 3 No Change 0 $ 0 $ 0
Wealthtrust-Arizona Llc 2016-09-30 121 No Change 0 $ 0 $ 26
Thompson Davis Co Inc 2016-09-30 41 Sold Some -1 $ -0 $ 9
Finemark National Bank Trust 2016-09-30 852 Sold Some -4 $ -0 $ 188
Washington Trust Bank 2016-09-30 5 Sold Some -5 $ -1 $ 1
Bronfman E L Rothschild L P 2016-09-30 509 Sold Some -5 $ -1 $ 112
Kistler-Tiffany Companies Llc 2016-09-30 0 Sold All -8 $ -1 $ 0
Tower Research Capital Llc Trc 2016-09-30 0 Sold All -9 $ -1 $ 0
Integrated Investment Consultants Llc 2016-09-30 481 Sold Some -9 $ -1 $ 106
Archford Capital Strategies Llc 2016-09-30 15 Sold Some -15 $ -3 $ 3
Parkside Financial Bank Trust 2016-09-30 607 Sold Some -20 $ -4 $ 134
American International Group Inc 2016-09-30 755 Sold Some -33 $ -7 $ 166
Advisor Group Inc 2016-09-30 1,262 Sold Some -35 $ -7 $ 278
Trust Co Of Vermont 2016-09-30 0 Sold All -35 $ -7 $ 0
First Manhattan Co 2016-09-30 0 Sold All -46 $ -10 $ 0
Eagleclaw Capital Managment Llc 2016-09-30 2,000 Sold Some -50 $ -11 $ 442
Bbva Compass Bancshares Inc 2016-09-30 2,116 Sold Some -81 $ -17 $ 467
Bb T Corp 2016-09-30 1,181 Sold Some -82 $ -18 $ 261
Botty Investors Llc 2016-09-30 0 Sold All -122 $ -26 $ 0
Gardner Lewis Asset Management L P 2016-09-30 15,380 Sold Some -130 $ -28 $ 3,400
Checchi Capital Advisers Llc 2016-09-30 0 Sold All -141 $ -31 $ 0
Sheets Smith Wealth Management 2016-09-30 3,814 Sold Some -161 $ -35 $ 843
Peoples United Financial Inc 2016-09-30 5,995 Sold Some -170 $ -37 $ 1,325
Westpac Banking Corp 2016-09-30 2,437 Sold Some -192 $ -42 $ 538
Us Bancorp De 2016-09-30 18,844 Sold Some -198 $ -43 $ 4,165
Ibm Retirement Fund 2016-09-30 3,020 Sold Some -207 $ -45 $ 667
Peak6 Investments L P 2016-09-30 2,937 Sold Some -210 $ -46 $ 649
Fdx Advisors Inc 2016-09-30 4,207 Sold Some -238 $ -52 $ 930
Pnc Financial Services Group Inc 2016-09-30 19,602 Sold Some -241 $ -53 $ 4,333
Seven Eight Capital Llc 2016-09-30 0 Sold All -300 $ -66 $ 0
Chatham Capital Group Inc 2016-09-30 4,695 Sold Some -300 $ -66 $ 1,037
Rosenblum Silverman Sutton S F Inc Ca 2016-09-30 13,890 Sold Some -300 $ -66 $ 3,070
Lebenthal Holdings Llc 2016-06-30 8,980 Sold Some -431 $ -94 $ 1,963
Stifel Financial Corp 2016-09-30 7,757 Sold Some -531 $ -117 $ 1,714
Disciplined Growth Investors Inc Mn 2016-09-30 39,434 Sold Some -535 $ -118 $ 8,717
Eagle Asset Management Inc 2016-09-30 59,502 Sold Some -551 $ -121 $ 13,154
Raymond James Associates 2016-09-30 9,841 Sold Some -579 $ -128 $ 2,175
Pioneer Investment Management Inc 2016-09-30 109,890 Sold Some -585 $ -129 $ 24,293
Hsbc Holdings Plc 2016-09-30 3,328 Sold Some -639 $ -141 $ 735
Quadrature Capital Ltd 2016-09-30 0 Sold All -929 $ -205 $ 0
Driehaus Capital Management Llc 2016-09-30 0 Sold All -946 $ -209 $ 0
Gilder Gagnon Howe Co Llc 2016-09-30 80,847 Sold Some -966 $ -213 $ 17,872
Teacher Retirement System Of Texas 2016-09-30 3,555 Sold Some -986 $ -217 $ 785
Princeton Alpha Management Lp 2016-09-30 3,967 Sold Some -1,085 $ -239 $ 876
Diam Co Ltd 2016-09-30 17,942 Sold Some -1,108 $ -244 $ 3,966
Point72 Asia Hong Kong Ltd 2016-09-30 2,364 Sold Some -1,148 $ -253 $ 522
Summit Creek Advisors Llc 2016-09-30 87,959 Sold Some -1,244 $ -275 $ 19,445
Calamos Wealth Management Llc 2016-09-30 0 Sold All -1,296 $ -286 $ 0
Swiss National Bank 2016-09-30 52,709 Sold Some -1,300 $ -287 $ 11,652
American Capital Management Inc 2016-09-30 47,693 Sold Some -1,330 $ -294 $ 10,543
Wildcat Capital Management Llc 2016-09-30 250,437 Sold Some -1,400 $ -309 $ 55,364
Bayesian Capital Management Lp 2016-09-30 0 Sold All -1,660 $ -366 $ 0
Parametrica Management Ltd 2016-09-30 0 Sold All -1,842 $ -407 $ 0
Sands Capital Management Llc 2016-09-30 46,240 Sold Some -1,900 $ -420 $ 10,222
Pacad Investment Ltd 2016-09-30 0 Sold All -2,100 $ -464 $ 0
Summit Securities Group Llc 2016-09-30 0 Sold All -2,128 $ -470 $ 0
Diversified Trust Co 2016-09-30 0 Sold All -2,293 $ -506 $ 0
Advisors Asset Management Inc 2016-09-30 363 Sold Some -2,317 $ -512 $ 80
Columbia Wanger Asset Management Llc 2016-09-30 108,015 Sold Some -2,671 $ -590 $ 23,878
Secor Capital Advisors Lp 2016-09-30 3,888 Sold Some -2,999 $ -662 $ 859
Millrace Asset Group Inc 2016-09-30 0 Sold All -3,500 $ -773 $ 0
Axa 2016-09-30 37,600 Sold Some -3,647 $ -806 $ 8,312
Gotham Asset Management Llc 2016-09-30 7,652 Sold Some -3,929 $ -868 $ 1,691
Columbia Partners L L C Investment Management 2016-09-30 0 Sold All -4,493 $ -993 $ 0
Df Dent Co Inc 2016-09-30 424,453 Sold Some -4,790 $ -1,058 $ 93,833
Franklin Street Advisors Inc Nc 2016-09-30 0 Sold All -5,020 $ -1,109 $ 0
United Services Automobile Association 2016-09-30 44,954 Sold Some -5,250 $ -1,160 $ 9,937
Nationwide Fund Advisors 2016-09-30 213,041 Sold Some -5,413 $ -1,196 $ 47,096
Westend Capital Management Llc 2016-09-30 0 Sold All -7,832 $ -1,731 $ 0
Sei Investments Co 2016-09-30 102,126 Sold Some -8,234 $ -1,820 $ 22,576
Calamos Advisors Llc 2016-09-30 174,411 Sold Some -8,246 $ -1,822 $ 38,557
Kornitzer Capital Management Inc Ks 2016-09-30 110,909 Sold Some -10,575 $ -2,337 $ 24,518
Timessquare Capital Management Llc 2016-09-30 870,255 Sold Some -11,430 $ -2,526 $ 192,387
Cupps Capital Management Llc 2016-09-30 9,074 Sold Some -12,353 $ -2,730 $ 2,005
New York State Common Retirement Fund 2016-09-30 122,527 Sold Some -12,490 $ -2,761 $ 27,087
Dynamic Capital Management Ltd 2016-09-30 0 Sold All -13,138 $ -2,904 $ 0
Next Century Growth Investors Llc 2016-09-30 219,962 Sold Some -13,550 $ -2,995 $ 48,626
A R T Advisors Llc 2016-09-30 0 Sold All -13,810 $ -3,052 $ 0
Castleark Management Llc 2016-09-30 0 Sold All -15,055 $ -3,328 $ 0
Riverbridge Partners Llc 2016-09-30 736,270 Sold Some -15,614 $ -3,451 $ 162,767
Envestnet Asset Management Inc 2016-09-30 24,890 Sold Some -16,129 $ -3,565 $ 5,502
Luxor Capital Group Lp 2016-09-30 221,624 Sold Some -18,816 $ -4,159 $ 48,994
Timpani Capital Management Llc 2016-09-30 8,724 Sold Some -19,290 $ -4,264 $ 1,928
Granahan Investment Management Inc Ma 2016-09-30 239,123 Sold Some -19,400 $ -4,288 $ 52,862
Summit Partners Public Asset Management Llc 2016-09-30 0 Sold All -20,000 $ -4,421 $ 0
Gam Holding Ag 2016-09-30 0 Sold All -23,894 $ -5,282 $ 0
Rainier Investment Management Llc 2016-09-30 66,950 Sold Some -24,240 $ -5,358 $ 14,800
Daruma Capital Management Llc 2016-09-30 270,826 Sold Some -27,467 $ -6,072 $ 59,871
Emerald Acquisition Ltd 2016-09-30 279,052 Sold Some -27,941 $ -6,176 $ 61,690
Conestoga Capital Advisors Llc 2016-09-30 106,506 Sold Some -35,050 $ -7,748 $ 23,545
Westfield Capital Management Co Lp 2016-09-30 389,832 Sold Some -36,289 $ -8,022 $ 86,180
William Blair Investment Management Llc 2016-09-30 1,516,128 Sold Some -38,193 $ -8,443 $ 335,170
Lord Abbett Co Llc 2016-09-30 25,119 Sold Some -110,552 $ -24,439 $ 5,553
Cornerstone Capital Management Llc 2016-09-30 84,795 Sold Some -118,613 $ -26,221 $ 18,745
Tiverton Asset Management Llc 2016-09-30 34,838 Sold Some -152,037 $ -33,610 $ 7,701